createdAt,value
2023-03-25T00:00:00.682Z,98840
2023-03-25T00:01:01.050Z,98840
2023-03-25T00:02:00.672Z,98840
2023-03-25T00:03:00.656Z,98839
2023-03-25T00:04:01.321Z,98839
2023-03-25T00:05:00.722Z,98839
2023-03-25T00:06:00.932Z,98839
2023-03-25T00:07:00.631Z,98839
2023-03-25T00:08:00.634Z,98834
2023-03-25T00:09:01.099Z,98834
2023-03-25T00:10:00.637Z,98834
2023-03-25T00:11:01.461Z,98834
2023-03-25T00:12:00.783Z,98834
2023-03-25T00:13:00.591Z,98830
2023-03-25T00:14:00.648Z,98830
2023-03-25T00:15:00.732Z,98830
2023-03-25T00:16:01.552Z,98830
2023-03-25T00:17:00.586Z,98830
2023-03-25T00:18:00.629Z,98829
2023-03-25T00:19:00.601Z,98829
2023-03-25T00:20:00.605Z,98829
2023-03-25T00:21:01.102Z,98829
2023-03-25T00:22:00.764Z,98829
2023-03-25T00:23:00.613Z,98834
2023-03-25T00:24:00.631Z,98834
2023-03-25T00:25:00.598Z,98834
2023-03-25T00:26:00.730Z,98834
2023-03-25T00:27:00.637Z,98834
2023-03-25T00:28:00.602Z,98827
2023-03-25T00:29:00.629Z,98827
2023-03-25T00:30:00.619Z,98827
2023-03-25T00:31:01.940Z,98827
2023-03-25T00:32:00.600Z,98827
2023-03-25T00:33:00.639Z,98833
2023-03-25T00:34:00.717Z,98833
2023-03-25T00:35:00.650Z,98833
2023-03-25T00:36:01.147Z,98833
2023-03-25T00:37:00.963Z,98833
2023-03-25T00:38:00.672Z,98841
2023-03-25T00:39:00.607Z,98841
2023-03-25T00:40:00.602Z,98841
2023-03-25T00:41:09.035Z,98841
2023-03-25T00:42:00.588Z,98841
2023-03-25T00:43:01.557Z,98834
2023-03-25T00:44:00.798Z,98834
2023-03-25T00:45:00.599Z,98834
2023-03-25T00:46:00.773Z,98834
2023-03-25T00:47:00.582Z,98834
2023-03-25T00:48:00.703Z,98835
2023-03-25T00:49:00.600Z,98835
2023-03-25T00:50:00.590Z,98835
2023-03-25T00:51:00.634Z,98835
2023-03-25T00:52:00.612Z,98835
2023-03-25T00:53:00.589Z,98832
2023-03-25T00:54:00.578Z,98832
2023-03-25T00:55:00.783Z,98832
2023-03-25T00:56:00.619Z,98832
2023-03-25T00:57:00.616Z,98832
2023-03-25T00:58:00.605Z,98828
2023-03-25T00:59:00.593Z,98828
2023-03-25T01:00:00.765Z,98828
2023-03-25T01:01:06.570Z,98828
2023-03-25T01:02:01.000Z,98828
2023-03-25T01:03:00.831Z,98834
2023-03-25T01:04:00.850Z,98834
2023-03-25T01:05:00.939Z,98834
2023-03-25T01:06:00.586Z,98834
2023-03-25T01:07:00.596Z,98834
2023-03-25T01:08:00.605Z,98837
2023-03-25T01:09:02.326Z,98837
2023-03-25T01:10:00.947Z,98837
2023-03-25T01:11:00.597Z,98837
2023-03-25T01:12:00.599Z,98837
2023-03-25T01:13:00.625Z,98836
2023-03-25T01:14:01.378Z,98836
2023-03-25T01:15:00.645Z,98836
2023-03-25T01:16:00.642Z,98836
2023-03-25T01:17:00.627Z,98836
2023-03-25T01:18:00.622Z,98831
2023-03-25T01:19:00.612Z,98831
2023-03-25T01:20:00.585Z,98831
2023-03-25T01:21:00.701Z,98831
2023-03-25T01:22:00.604Z,98831
2023-03-25T01:23:00.600Z,98827
2023-03-25T01:24:00.684Z,98827
2023-03-25T01:25:00.627Z,98827
2023-03-25T01:26:00.642Z,98827
2023-03-25T01:27:00.779Z,98827
2023-03-25T01:28:00.695Z,98828
2023-03-25T01:29:00.756Z,98828
2023-03-25T01:30:00.736Z,98828
2023-03-25T01:31:01.490Z,98828
2023-03-25T01:32:00.709Z,98828
2023-03-25T01:33:00.679Z,98828
2023-03-25T01:34:00.663Z,98828
2023-03-25T01:35:00.592Z,98828
2023-03-25T01:36:00.872Z,98828
2023-03-25T01:37:00.583Z,98828
2023-03-25T01:38:00.690Z,98827
2023-03-25T01:39:01.000Z,98827
2023-03-25T01:40:00.784Z,98827
2023-03-25T01:41:00.589Z,98827
2023-03-25T01:42:00.632Z,98827
2023-03-25T01:43:00.603Z,98834
2023-03-25T01:44:08.040Z,98834
2023-03-25T01:45:10.495Z,98834
2023-03-25T01:46:00.630Z,98834
2023-03-25T01:47:02.667Z,98834
2023-03-25T01:48:05.098Z,98842
2023-03-25T01:49:01.722Z,98842
2023-03-25T01:50:00.641Z,98842
2023-03-25T01:51:02.879Z,98842
2023-03-25T01:52:04.180Z,98842
2023-03-25T01:53:02.000Z,98836
2023-03-25T01:54:00.792Z,98836
2023-03-25T01:55:01.686Z,98836
2023-03-25T01:56:02.066Z,98836
2023-03-25T01:57:00.741Z,98836
2023-03-25T01:58:03.126Z,98843
2023-03-25T01:59:02.320Z,98843
2023-03-25T02:00:00.831Z,98843
2023-03-25T02:01:01.256Z,98843
2023-03-25T02:02:02.230Z,98843
2023-03-25T02:03:01.000Z,98854
2023-03-25T02:04:02.276Z,98854
2023-03-25T02:05:04.264Z,98854
2023-03-25T02:06:01.583Z,98854
2023-03-25T02:07:00.918Z,98854
2023-03-25T02:08:02.633Z,98852
2023-03-25T02:09:02.147Z,98852
2023-03-25T02:10:02.174Z,98852
2023-03-25T02:11:00.916Z,98852
2023-03-25T02:12:00.619Z,98852
2023-03-25T02:13:01.195Z,98844
2023-03-25T02:14:03.524Z,98844
2023-03-25T02:15:01.789Z,98844
2023-03-25T02:16:10.557Z,98844
2023-03-25T02:17:01.601Z,98844
2023-03-25T02:18:10.504Z,98846
2023-03-25T02:19:00.572Z,98846
2023-03-25T02:20:10.513Z,98846
2023-03-25T02:21:07.944Z,98846
2023-03-25T02:22:10.520Z,98846
2023-03-25T02:23:10.519Z,98845
2023-03-25T02:24:10.503Z,98845
2023-03-25T02:25:10.497Z,98845
2023-03-25T02:26:00.570Z,98845
2023-03-25T02:27:09.463Z,98845
2023-03-25T02:28:01.607Z,98854
2023-03-25T02:29:08.159Z,98854
2023-03-25T02:30:00.575Z,98854
2023-03-25T02:31:08.024Z,98854
2023-03-25T02:32:03.883Z,98854
2023-03-25T02:33:10.534Z,98858
2023-03-25T02:34:10.522Z,98858
2023-03-25T02:35:10.507Z,98858
2023-03-25T02:36:08.119Z,98858
2023-03-25T02:37:10.509Z,98858
2023-03-25T02:38:01.595Z,98840
2023-03-25T02:39:10.525Z,98840
2023-03-25T02:40:00.583Z,98840
2023-03-25T02:41:03.812Z,98840
2023-03-25T02:42:07.902Z,98840
2023-03-25T02:43:03.159Z,98855
2023-03-25T02:44:02.663Z,98855
2023-03-25T02:45:04.280Z,98855
2023-03-25T02:46:03.231Z,98855
2023-03-25T02:47:02.851Z,98855
2023-03-25T02:48:04.642Z,98850
2023-03-25T02:49:00.573Z,98850
2023-03-25T02:50:10.521Z,98850
2023-03-25T02:51:05.070Z,98850
2023-03-25T02:52:10.504Z,98850
2023-03-25T02:53:02.603Z,98845
2023-03-25T02:54:03.150Z,98845
2023-03-25T02:55:01.769Z,98845
2023-03-25T02:56:05.984Z,98845
2023-03-25T02:57:00.721Z,98845
2023-03-25T02:58:04.025Z,98843
2023-03-25T02:59:01.704Z,98843
2023-03-25T03:00:01.956Z,98843
2023-03-25T03:01:00.718Z,98843
2023-03-25T03:02:03.036Z,98843
2023-03-25T03:03:02.312Z,98850
2023-03-25T03:04:00.857Z,98850
2023-03-25T03:05:00.611Z,98850
2023-03-25T03:06:01.834Z,98850
2023-03-25T03:07:00.614Z,98850
2023-03-25T03:08:03.874Z,98859
2023-03-25T03:09:09.924Z,98859
2023-03-25T03:10:10.499Z,98859
2023-03-25T03:11:09.126Z,98859
2023-03-25T03:12:06.005Z,98859
2023-03-25T03:13:10.501Z,98857
2023-03-25T03:14:03.857Z,98857
2023-03-25T03:15:00.632Z,98857
2023-03-25T03:16:10.527Z,98857
2023-03-25T03:17:00.775Z,98857
2023-03-25T03:18:00.698Z,98854
2023-03-25T03:19:09.149Z,98854
2023-03-25T03:20:01.658Z,98854
2023-03-25T03:21:10.514Z,98854
2023-03-25T03:22:00.578Z,98854
2023-03-25T03:23:00.580Z,98848
2023-03-25T03:24:10.518Z,98848
2023-03-25T03:25:03.885Z,98848
2023-03-25T03:26:04.018Z,98848
2023-03-25T03:27:01.630Z,98848
2023-03-25T03:28:01.609Z,98860
2023-03-25T03:29:06.819Z,98860
2023-03-25T03:30:10.535Z,98860
2023-03-25T03:31:04.391Z,98860
2023-03-25T03:32:05.742Z,98860
2023-03-25T03:33:07.691Z,98859
2023-03-25T03:34:03.698Z,98859
2023-03-25T03:35:04.062Z,98859
2023-03-25T03:36:04.036Z,98859
2023-03-25T03:37:01.638Z,98859
2023-03-25T03:38:05.064Z,98862
2023-03-25T03:39:03.405Z,98862
2023-03-25T03:40:01.674Z,98862
2023-03-25T03:41:03.260Z,98862
2023-03-25T03:42:06.819Z,98862
2023-03-25T03:43:04.585Z,98873
2023-03-25T03:44:03.679Z,98873
2023-03-25T03:45:05.822Z,98873
2023-03-25T03:46:04.635Z,98873
2023-03-25T03:47:10.511Z,98873
2023-03-25T03:48:04.225Z,98877
2023-03-25T03:49:01.851Z,98877
2023-03-25T03:50:06.982Z,98877
2023-03-25T03:51:04.148Z,98877
2023-03-25T03:52:08.042Z,98877
2023-03-25T03:53:10.520Z,98896
2023-03-25T03:54:05.012Z,98896
2023-03-25T03:55:03.537Z,98896
2023-03-25T03:56:05.392Z,98896
2023-03-25T03:57:02.688Z,98896
2023-03-25T03:58:04.902Z,98901
2023-03-25T03:59:01.104Z,98901
2023-03-25T04:00:08.469Z,98901
2023-03-25T04:01:12.238Z,98901
2023-03-25T04:02:03.555Z,98901
2023-03-25T04:03:05.484Z,98902
2023-03-25T04:04:03.903Z,98902
2023-03-25T04:05:00.866Z,98902
2023-03-25T04:06:02.941Z,98902
2023-03-25T04:07:06.968Z,98902
2023-03-25T04:08:04.934Z,98906
2023-03-25T04:09:06.543Z,98906
2023-03-25T04:10:10.495Z,98906
2023-03-25T04:11:03.364Z,98906
2023-03-25T04:12:04.674Z,98906
2023-03-25T04:13:03.409Z,98913
2023-03-25T04:14:02.138Z,98913
2023-03-25T04:15:01.739Z,98913
2023-03-25T04:16:01.005Z,98913
2023-03-25T04:17:00.642Z,98913
2023-03-25T04:18:01.040Z,98921
2023-03-25T04:19:00.584Z,98921
2023-03-25T04:20:01.035Z,98921
2023-03-25T04:21:00.672Z,98921
2023-03-25T04:22:01.305Z,98921
2023-03-25T04:23:00.946Z,98925
2023-03-25T04:24:00.600Z,98925
2023-03-25T04:25:00.605Z,98925
2023-03-25T04:26:00.613Z,98925
2023-03-25T04:27:00.632Z,98925
2023-03-25T04:28:00.616Z,98930
2023-03-25T04:29:00.730Z,98930
2023-03-25T04:30:00.621Z,98930
2023-03-25T04:31:00.706Z,98930
2023-03-25T04:32:00.607Z,98930
2023-03-25T04:33:00.853Z,98928
2023-03-25T04:34:00.651Z,98928
2023-03-25T04:35:00.609Z,98928
2023-03-25T04:36:00.664Z,98928
2023-03-25T04:37:00.654Z,98928
2023-03-25T04:38:00.600Z,98929
2023-03-25T04:39:00.604Z,98929
2023-03-25T04:40:00.722Z,98929
2023-03-25T04:41:00.690Z,98929
2023-03-25T04:42:00.701Z,98929
2023-03-25T04:43:00.592Z,98933
2023-03-25T04:44:00.665Z,98933
2023-03-25T04:45:00.676Z,98933
2023-03-25T04:46:00.678Z,98933
2023-03-25T04:47:01.188Z,98933
2023-03-25T04:48:00.727Z,98946
2023-03-25T04:49:00.906Z,98946
2023-03-25T04:50:00.629Z,98946
2023-03-25T04:51:00.721Z,98946
2023-03-25T04:52:00.605Z,98946
2023-03-25T04:53:00.584Z,98956
2023-03-25T04:54:00.589Z,98956
2023-03-25T04:55:00.636Z,98956
2023-03-25T04:56:00.602Z,98956
2023-03-25T04:57:00.645Z,98956
2023-03-25T04:58:00.764Z,98954
2023-03-25T04:59:00.591Z,98954
2023-03-25T05:00:00.638Z,98954
2023-03-25T05:01:00.663Z,98954
2023-03-25T05:02:01.086Z,98954
2023-03-25T05:03:00.625Z,98963
2023-03-25T05:04:01.954Z,98963
2023-03-25T05:05:00.603Z,98963
2023-03-25T05:06:00.688Z,98963
2023-03-25T05:07:00.594Z,98963
2023-03-25T05:08:00.633Z,98955
2023-03-25T05:09:01.299Z,98955
2023-03-25T05:10:00.585Z,98955
2023-03-25T05:11:00.607Z,98955
2023-03-25T05:12:00.624Z,98955
2023-03-25T05:13:02.112Z,98962
2023-03-25T05:14:00.582Z,98962
2023-03-25T05:15:00.589Z,98962
2023-03-25T05:16:00.609Z,98962
2023-03-25T05:17:00.619Z,98962
2023-03-25T05:18:00.643Z,98968
2023-03-25T05:19:00.663Z,98968
2023-03-25T05:20:00.762Z,98968
2023-03-25T05:21:00.607Z,98968
2023-03-25T05:22:00.618Z,98968
2023-03-25T05:23:00.587Z,98960
2023-03-25T05:24:01.107Z,98960
2023-03-25T05:25:00.609Z,98960
2023-03-25T05:26:00.617Z,98960
2023-03-25T05:27:00.598Z,98960
2023-03-25T05:28:00.600Z,98968
2023-03-25T05:29:01.682Z,98968
2023-03-25T05:30:01.182Z,98968
2023-03-25T05:31:01.087Z,98968
2023-03-25T05:32:00.723Z,98968
2023-03-25T05:33:00.656Z,98974
2023-03-25T05:34:00.756Z,98974
2023-03-25T05:35:01.864Z,98974
2023-03-25T05:36:00.655Z,98974
2023-03-25T05:37:00.588Z,98974
2023-03-25T05:38:00.607Z,98988
2023-03-25T05:39:00.617Z,98988
2023-03-25T05:40:00.651Z,98988
2023-03-25T05:41:00.601Z,98988
2023-03-25T05:42:00.594Z,98988
2023-03-25T05:43:01.077Z,98983
2023-03-25T05:44:00.700Z,98983
2023-03-25T05:45:00.596Z,98983
2023-03-25T05:46:00.604Z,98983
2023-03-25T05:47:00.675Z,98983
2023-03-25T05:48:01.368Z,98998
2023-03-25T05:49:00.839Z,98998
2023-03-25T05:50:00.601Z,98998
2023-03-25T05:51:02.208Z,98998
2023-03-25T05:52:00.579Z,98998
2023-03-25T05:53:00.618Z,99002
2023-03-25T05:54:00.638Z,99002
2023-03-25T05:55:00.613Z,99002
2023-03-25T05:56:00.610Z,99002
2023-03-25T05:57:00.637Z,99002
2023-03-25T05:58:00.611Z,99007
2023-03-25T05:59:00.591Z,99007
2023-03-25T06:00:00.871Z,99007
2023-03-25T06:01:00.779Z,99007
2023-03-25T06:02:00.617Z,99007
2023-03-25T06:03:00.645Z,98999
2023-03-25T06:04:01.129Z,98999
2023-03-25T06:05:00.600Z,98999
2023-03-25T06:06:00.691Z,98999
2023-03-25T06:07:00.591Z,98999
2023-03-25T06:08:00.591Z,99017
2023-03-25T06:09:01.181Z,99017
2023-03-25T06:10:00.622Z,99017
2023-03-25T06:11:00.633Z,99017
2023-03-25T06:12:01.454Z,99017
2023-03-25T06:13:00.696Z,99020
2023-03-25T06:14:02.765Z,99020
2023-03-25T06:15:00.620Z,99020
2023-03-25T06:16:00.609Z,99020
2023-03-25T06:17:00.593Z,99020
2023-03-25T06:18:00.630Z,99022
2023-03-25T06:19:00.677Z,99022
2023-03-25T06:20:00.601Z,99022
2023-03-25T06:21:00.600Z,99022
2023-03-25T06:22:00.604Z,99022
2023-03-25T06:23:00.609Z,99036
2023-03-25T06:24:00.931Z,99036
2023-03-25T06:25:03.089Z,99036
2023-03-25T06:26:00.724Z,99036
2023-03-25T06:27:00.620Z,99036
2023-03-25T06:28:00.602Z,99037
2023-03-25T06:29:00.601Z,99037
2023-03-25T06:30:01.857Z,99037
2023-03-25T06:31:00.654Z,99037
2023-03-25T06:32:00.598Z,99037
2023-03-25T06:33:00.616Z,99044
2023-03-25T06:34:00.643Z,99044
2023-03-25T06:35:00.599Z,99044
2023-03-25T06:36:00.650Z,99044
2023-03-25T06:37:00.788Z,99044
2023-03-25T06:38:00.693Z,99049
2023-03-25T06:39:00.629Z,99049
2023-03-25T06:40:00.623Z,99049
2023-03-25T06:41:00.626Z,99049
2023-03-25T06:42:00.590Z,99049
2023-03-25T06:43:00.590Z,99050
2023-03-25T06:44:00.896Z,99050
2023-03-25T06:45:00.606Z,99050
2023-03-25T06:46:00.675Z,99050
2023-03-25T06:47:00.609Z,99050
2023-03-25T06:48:00.713Z,99040
2023-03-25T06:49:00.616Z,99040
2023-03-25T06:50:00.621Z,99040
2023-03-25T06:51:00.604Z,99040
2023-03-25T06:52:00.635Z,99040
2023-03-25T06:53:00.583Z,99046
2023-03-25T06:54:00.611Z,99046
2023-03-25T06:55:00.610Z,99046
2023-03-25T06:56:00.637Z,99046
2023-03-25T06:57:00.640Z,99046
2023-03-25T06:58:00.611Z,99050
2023-03-25T06:59:00.630Z,99050
2023-03-25T07:00:00.663Z,99050
2023-03-25T07:01:00.825Z,99050
2023-03-25T07:02:00.681Z,99050
2023-03-25T07:03:00.680Z,99050
2023-03-25T07:04:00.607Z,99050
2023-03-25T07:05:00.683Z,99050
2023-03-25T07:06:00.775Z,99050
2023-03-25T07:07:00.623Z,99050
2023-03-25T07:08:00.613Z,99061
2023-03-25T07:09:00.640Z,99061
2023-03-25T07:10:00.628Z,99061
2023-03-25T07:11:01.714Z,99061
2023-03-25T07:12:00.634Z,99061
2023-03-25T07:13:00.625Z,99079
2023-03-25T07:14:00.668Z,99079
2023-03-25T07:15:00.769Z,99079
2023-03-25T07:16:00.933Z,99079
2023-03-25T07:17:00.608Z,99079
2023-03-25T07:18:00.651Z,99094
2023-03-25T07:19:00.671Z,99094
2023-03-25T07:20:00.666Z,99094
2023-03-25T07:21:00.610Z,99094
2023-03-25T07:22:00.644Z,99094
2023-03-25T07:23:00.596Z,99096
2023-03-25T07:24:00.612Z,99096
2023-03-25T07:25:00.976Z,99096
2023-03-25T07:26:00.614Z,99096
2023-03-25T07:27:00.585Z,99096
2023-03-25T07:28:00.615Z,99104
2023-03-25T07:29:00.613Z,99104
2023-03-25T07:30:00.613Z,99104
2023-03-25T07:31:00.646Z,99104
2023-03-25T07:32:00.699Z,99104
2023-03-25T07:33:00.676Z,99110
2023-03-25T07:34:00.605Z,99110
2023-03-25T07:35:00.663Z,99110
2023-03-25T07:36:00.993Z,99110
2023-03-25T07:37:00.631Z,99110
2023-03-25T07:38:00.635Z,99112
2023-03-25T07:39:00.707Z,99112
2023-03-25T07:40:00.683Z,99112
2023-03-25T07:41:04.089Z,99112
2023-03-25T07:42:00.920Z,99112
2023-03-25T07:43:00.679Z,99117
2023-03-25T07:44:00.667Z,99117
2023-03-25T07:45:00.622Z,99117
2023-03-25T07:46:00.975Z,99117
2023-03-25T07:47:00.625Z,99117
2023-03-25T07:48:00.809Z,99133
2023-03-25T07:49:00.632Z,99133
2023-03-25T07:50:00.600Z,99133
2023-03-25T07:51:00.648Z,99133
2023-03-25T07:52:00.603Z,99133
2023-03-25T07:53:00.614Z,99143
2023-03-25T07:54:04.821Z,99143
2023-03-25T07:55:00.637Z,99143
2023-03-25T07:56:00.601Z,99143
2023-03-25T07:57:00.854Z,99143
2023-03-25T07:58:00.899Z,99159
2023-03-25T07:59:00.749Z,99159
2023-03-25T08:00:00.733Z,99159
2023-03-25T08:01:00.602Z,99159
2023-03-25T08:02:00.667Z,99159
2023-03-25T08:03:00.717Z,99149
2023-03-25T08:04:00.721Z,99149
2023-03-25T08:05:02.104Z,99149
2023-03-25T08:06:00.663Z,99149
2023-03-25T08:07:00.622Z,99149
2023-03-25T08:08:03.520Z,99148
2023-03-25T08:09:00.627Z,99148
2023-03-25T08:10:00.602Z,99148
2023-03-25T08:11:00.803Z,99148
2023-03-25T08:12:00.645Z,99148
2023-03-25T08:13:00.808Z,99157
2023-03-25T08:14:00.637Z,99157
2023-03-25T08:15:00.594Z,99157
2023-03-25T08:16:00.658Z,99157
2023-03-25T08:17:00.616Z,99157
2023-03-25T08:18:00.757Z,99180
2023-03-25T08:19:00.604Z,99180
2023-03-25T08:20:00.628Z,99180
2023-03-25T08:21:00.591Z,99180
2023-03-25T08:22:00.609Z,99180
2023-03-25T08:23:00.741Z,99185
2023-03-25T08:24:00.675Z,99185
2023-03-25T08:25:00.717Z,99185
2023-03-25T08:26:00.619Z,99185
2023-03-25T08:27:00.617Z,99185
2023-03-25T08:28:00.623Z,99204
2023-03-25T08:29:00.829Z,99204
2023-03-25T08:30:00.595Z,99204
2023-03-25T08:31:04.329Z,99204
2023-03-25T08:32:00.692Z,99204
2023-03-25T08:33:00.634Z,99225
2023-03-25T08:34:01.029Z,99225
2023-03-25T08:35:00.880Z,99225
2023-03-25T08:36:01.080Z,99225
2023-03-25T08:37:00.629Z,99225
2023-03-25T08:38:00.620Z,99220
2023-03-25T08:39:00.603Z,99220
2023-03-25T08:40:01.154Z,99220
2023-03-25T08:41:00.924Z,99220
2023-03-25T08:42:00.596Z,99220
2023-03-25T08:43:03.114Z,99242
2023-03-25T08:44:00.582Z,99242
2023-03-25T08:45:00.936Z,99242
2023-03-25T08:46:00.676Z,99242
2023-03-25T08:47:00.874Z,99242
2023-03-25T08:48:00.835Z,99264
2023-03-25T08:49:00.625Z,99264
2023-03-25T08:50:00.684Z,99264
2023-03-25T08:51:00.951Z,99264
2023-03-25T08:52:00.656Z,99264
2023-03-25T08:53:00.599Z,99267
2023-03-25T08:54:00.605Z,99267
2023-03-25T08:55:00.616Z,99267
2023-03-25T08:56:00.726Z,99267
2023-03-25T08:57:00.841Z,99267
2023-03-25T08:58:01.453Z,99279
2023-03-25T08:59:00.616Z,99279
2023-03-25T09:00:01.080Z,99279
2023-03-25T09:01:00.655Z,99279
2023-03-25T09:02:01.625Z,99279
2023-03-25T09:03:01.317Z,99293
2023-03-25T09:04:00.607Z,99293
2023-03-25T09:05:00.873Z,99293
2023-03-25T09:06:04.355Z,99293
2023-03-25T09:07:10.493Z,99293
2023-03-25T09:08:00.877Z,99298
2023-03-25T09:09:00.938Z,99298
2023-03-25T09:10:00.745Z,99298
2023-03-25T09:11:00.598Z,99298
2023-03-25T09:12:00.597Z,99298
2023-03-25T09:13:00.633Z,99308
2023-03-25T09:14:00.940Z,99308
2023-03-25T09:15:00.848Z,99308
2023-03-25T09:16:00.623Z,99308
2023-03-25T09:17:00.639Z,99308
2023-03-25T09:18:00.621Z,99310
2023-03-25T09:19:01.046Z,99310
2023-03-25T09:20:00.873Z,99310
2023-03-25T09:21:00.590Z,99310
2023-03-25T09:22:00.598Z,99310
2023-03-25T09:23:00.594Z,99317
2023-03-25T09:24:00.590Z,99317
2023-03-25T09:25:00.829Z,99317
2023-03-25T09:26:01.250Z,99317
2023-03-25T09:27:01.205Z,99317
2023-03-25T09:28:00.581Z,99322
2023-03-25T09:29:00.621Z,99322
2023-03-25T09:30:00.797Z,99322
2023-03-25T09:31:00.698Z,99322
2023-03-25T09:32:00.609Z,99322
2023-03-25T09:33:00.652Z,99331
2023-03-25T09:34:00.686Z,99331
2023-03-25T09:35:00.702Z,99331
2023-03-25T09:36:00.726Z,99331
2023-03-25T09:37:00.615Z,99331
2023-03-25T09:38:00.616Z,99338
2023-03-25T09:39:00.597Z,99338
2023-03-25T09:40:00.671Z,99338
2023-03-25T09:41:03.639Z,99338
2023-03-25T09:42:11.230Z,99338
2023-03-25T09:43:10.518Z,99341
2023-03-25T09:44:09.890Z,99341
2023-03-25T09:45:12.415Z,99341
2023-03-25T09:46:00.744Z,99341
2023-03-25T09:47:01.828Z,99341
2023-03-25T09:48:10.565Z,99354
2023-03-25T09:49:01.257Z,99354
2023-03-25T09:50:04.489Z,99354
2023-03-25T09:51:08.015Z,99354
2023-03-25T09:52:00.783Z,99354
2023-03-25T09:53:00.609Z,99356
2023-03-25T09:54:00.592Z,99356
2023-03-25T09:55:05.068Z,99356
2023-03-25T09:56:02.070Z,99356
2023-03-25T09:57:05.184Z,99356
2023-03-25T09:58:09.222Z,99352
2023-03-25T09:59:02.737Z,99352
2023-03-25T10:00:02.375Z,99352
2023-03-25T10:01:00.599Z,99352
2023-03-25T10:02:00.605Z,99352
2023-03-25T10:03:06.448Z,99370
2023-03-25T10:04:00.596Z,99370
2023-03-25T10:05:09.822Z,99370
2023-03-25T10:06:08.753Z,99370
2023-03-25T10:07:10.523Z,99370
2023-03-25T10:08:10.515Z,99368
2023-03-25T10:09:00.580Z,99368
2023-03-25T10:10:05.699Z,99368
2023-03-25T10:11:10.507Z,99368
2023-03-25T10:12:00.586Z,99368
2023-03-25T10:13:00.612Z,99379
2023-03-25T10:14:00.578Z,99379
2023-03-25T10:15:10.533Z,99379
2023-03-25T10:16:00.618Z,99379
2023-03-25T10:17:10.512Z,99379
2023-03-25T10:18:00.630Z,99393
2023-03-25T10:19:03.999Z,99393
2023-03-25T10:20:05.711Z,99393
2023-03-25T10:21:00.585Z,99393
2023-03-25T10:22:01.632Z,99393
2023-03-25T10:23:10.513Z,99400
2023-03-25T10:24:10.527Z,99400
2023-03-25T10:25:02.965Z,99400
2023-03-25T10:26:03.800Z,99400
2023-03-25T10:27:04.240Z,99400
2023-03-25T10:28:01.754Z,99408
2023-03-25T10:29:05.598Z,99408
2023-03-25T10:30:10.506Z,99408
2023-03-25T10:31:01.915Z,99408
2023-03-25T10:32:04.688Z,99408
2023-03-25T10:33:03.086Z,99422
2023-03-25T10:34:03.370Z,99422
2023-03-25T10:35:01.982Z,99422
2023-03-25T10:36:01.790Z,99422
2023-03-25T10:37:01.369Z,99422
2023-03-25T10:38:08.667Z,99428
2023-03-25T10:39:01.406Z,99428
2023-03-25T10:40:10.517Z,99428
2023-03-25T10:41:00.583Z,99428
2023-03-25T10:42:10.104Z,99428
2023-03-25T10:43:03.873Z,99437
2023-03-25T10:44:01.052Z,99437
2023-03-25T10:45:00.716Z,99437
2023-03-25T10:46:10.551Z,99437
2023-03-25T10:47:04.964Z,99437
2023-03-25T10:48:06.073Z,99452
2023-03-25T10:49:00.594Z,99452
2023-03-25T10:50:00.836Z,99452
2023-03-25T10:51:01.633Z,99452
2023-03-25T10:52:00.681Z,99452
2023-03-25T10:53:01.032Z,99459
2023-03-25T10:54:00.670Z,99459
2023-03-25T10:55:00.654Z,99459
2023-03-25T10:56:10.500Z,99459
2023-03-25T10:57:02.591Z,99459
2023-03-25T10:58:01.057Z,99480
2023-03-25T10:59:03.899Z,99480
2023-03-25T11:00:10.549Z,99480
2023-03-25T11:01:04.372Z,99480
2023-03-25T11:02:03.120Z,99480
2023-03-25T11:03:00.668Z,99476
2023-03-25T11:04:01.292Z,99476
2023-03-25T11:05:01.807Z,99476
2023-03-25T11:06:00.651Z,99476
2023-03-25T11:07:00.872Z,99476
2023-03-25T11:08:08.777Z,99493
2023-03-25T11:09:10.520Z,99493
2023-03-25T11:10:10.508Z,99493
2023-03-25T11:11:04.952Z,99493
2023-03-25T11:12:01.696Z,99493
2023-03-25T11:13:00.913Z,99508
2023-03-25T11:14:01.167Z,99508
2023-03-25T11:15:01.080Z,99508
2023-03-25T11:16:02.252Z,99508
2023-03-25T11:17:01.416Z,99508
2023-03-25T11:18:00.773Z,99504
2023-03-25T11:19:01.171Z,99504
2023-03-25T11:20:05.045Z,99504
2023-03-25T11:21:03.788Z,99504
2023-03-25T11:22:06.550Z,99504
2023-03-25T11:23:05.095Z,99509
2023-03-25T11:24:01.002Z,99509
2023-03-25T11:25:03.229Z,99509
2023-03-25T11:26:03.852Z,99509
2023-03-25T11:27:00.826Z,99509
2023-03-25T11:28:04.001Z,99512
2023-03-25T11:29:04.351Z,99512
2023-03-25T11:30:02.809Z,99512
2023-03-25T11:31:10.538Z,99512
2023-03-25T11:32:10.510Z,99512
2023-03-25T11:33:03.572Z,99513
2023-03-25T11:34:10.565Z,99513
2023-03-25T11:35:01.634Z,99513
2023-03-25T11:36:10.516Z,99513
2023-03-25T11:37:05.171Z,99513
2023-03-25T11:38:01.555Z,99521
2023-03-25T11:39:02.485Z,99521
2023-03-25T11:40:03.641Z,99521
2023-03-25T11:41:00.630Z,99521
2023-03-25T11:42:10.513Z,99521
2023-03-25T11:43:01.011Z,99520
2023-03-25T11:44:01.632Z,99520
2023-03-25T11:45:01.289Z,99520
2023-03-25T11:46:10.535Z,99520
2023-03-25T11:47:03.152Z,99520
2023-03-25T11:48:08.008Z,99522
2023-03-25T11:49:09.337Z,99522
2023-03-25T11:50:00.709Z,99522
2023-03-25T11:51:01.969Z,99522
2023-03-25T11:52:04.426Z,99522
2023-03-25T11:53:01.672Z,99532
2023-03-25T11:54:02.176Z,99532
2023-03-25T11:55:00.662Z,99532
2023-03-25T11:56:02.504Z,99532
2023-03-25T11:57:02.592Z,99532
2023-03-25T11:58:01.081Z,99536
2023-03-25T11:59:02.236Z,99536
2023-03-25T12:00:03.194Z,99536
2023-03-25T12:01:02.949Z,99536
2023-03-25T12:02:01.752Z,99536
2023-03-25T12:03:02.818Z,99538
2023-03-25T12:04:05.145Z,99538
2023-03-25T12:05:08.015Z,99538
2023-03-25T12:06:10.526Z,99538
2023-03-25T12:07:06.499Z,99538
2023-03-25T12:08:10.500Z,99537
2023-03-25T12:09:06.045Z,99537
2023-03-25T12:10:04.048Z,99537
2023-03-25T12:11:06.160Z,99537
2023-03-25T12:12:00.579Z,99537
2023-03-25T12:13:06.411Z,99544
2023-03-25T12:14:03.853Z,99544
2023-03-25T12:15:00.651Z,99544
2023-03-25T12:16:00.600Z,99544
2023-03-25T12:17:10.516Z,99544
2023-03-25T12:18:10.504Z,99541
2023-03-25T12:19:10.504Z,99541
2023-03-25T12:20:00.580Z,99541
2023-03-25T12:21:01.619Z,99541
2023-03-25T12:22:10.530Z,99541
2023-03-25T12:23:02.001Z,99560
2023-03-25T12:24:10.507Z,99560
2023-03-25T12:25:10.503Z,99560
2023-03-25T12:26:10.522Z,99560
2023-03-25T12:27:00.586Z,99560
2023-03-25T12:28:08.060Z,99565
2023-03-25T12:29:07.948Z,99565
2023-03-25T12:30:09.251Z,99565
2023-03-25T12:31:10.551Z,99565
2023-03-25T12:32:00.597Z,99565
2023-03-25T12:33:06.625Z,99564
2023-03-25T12:34:06.655Z,99564
2023-03-25T12:35:00.585Z,99564
2023-03-25T12:36:10.509Z,99564
2023-03-25T12:37:10.523Z,99564
2023-03-25T12:38:10.599Z,99569
2023-03-25T12:39:09.063Z,99569
2023-03-25T12:40:02.059Z,99569
2023-03-25T12:41:10.545Z,99569
2023-03-25T12:42:09.628Z,99569
2023-03-25T12:43:00.586Z,99571
2023-03-25T12:44:10.512Z,99571
2023-03-25T12:45:10.510Z,99571
2023-03-25T12:46:00.644Z,99571
2023-03-25T12:47:10.502Z,99571
2023-03-25T12:48:03.894Z,99560
2023-03-25T12:49:00.587Z,99560
2023-03-25T12:50:06.130Z,99560
2023-03-25T12:51:06.780Z,99560
2023-03-25T12:52:07.670Z,99560